Time;durP1;ratioP1;P1;durP2;ratioP2;P2;SDS_P1;SDS_P2;PMS_P1;PMS_P2;Temp;Humidity;BMP_temperature;BMP_pressure;BME280_temperature;BME280_humidity;BME280_pressure;Samples;Min_cycle;Max_cycle;Signal;HPM_P1;HPM_P2
2022/05/01 00:00:48;;;;;;;4.72;3.70;;;;;;;21.98;52.39;99771.91;4973338;29;20042;-87
2022/05/01 00:03:30;;;;;;;4.57;4.03;;;;;;;21.99;52.32;99763.84;4974448;29;20113;-90
2022/05/01 00:06:14;;;;;;;4.40;3.70;;;;;;;21.99;52.46;99766.50;4989132;28;20038;-87
2022/05/01 00:08:41;;;;;;;5.82;4.00;;;;;;;21.98;52.40;99762.16;4973648;29;20038;-88
2022/05/01 00:11:08;;;;;;;5.05;4.13;;;;;;;21.97;52.56;99759.59;4989117;28;20023;-88
2022/05/01 00:13:37;;;;;;;4.45;3.70;;;;;;;21.99;52.55;99763.03;4974170;29;20094;-87
2022/05/01 00:16:02;;;;;;;4.68;3.60;;;;;;;21.95;52.51;99759.69;4989592;28;20061;-88
2022/05/01 00:18:28;;;;;;;4.75;3.90;;;;;;;21.94;52.28;99759.78;4972717;29;20023;-89
2022/05/01 00:20:54;;;;;;;5.28;3.90;;;;;;;21.93;52.56;99750.09;4973357;29;20351;-87
2022/05/01 00:23:20;;;;;;;4.70;3.80;;;;;;;21.93;52.47;99753.59;4973623;29;20038;-88
2022/05/01 00:25:46;;;;;;;5.35;3.85;;;;;;;21.91;52.51;99750.19;4972169;29;20020;-86
2022/05/01 00:28:13;;;;;;;4.88;3.95;;;;;;;21.91;52.54;99747.53;4973214;29;20059;-88
2022/05/01 00:30:41;;;;;;;4.90;3.53;;;;;;;21.91;52.57;99744.88;4957506;29;20095;-88
2022/05/01 00:38:38;;;;;;;4.40;3.67;;;;;;;21.86;52.58;99737.19;4974548;29;20114;-91
2022/05/01 00:41:07;;;;;;;5.28;4.00;;;;;;;21.85;52.43;99729.31;4973432;29;20031;-92
2022/05/01 00:43:53;;;;;;;5.32;4.22;;;;;;;21.87;52.63;99738.03;4972880;29;20030;-89
2022/05/01 00:46:19;;;;;;;4.60;4.00;;;;;;;21.84;52.67;99732.94;4973454;28;20034;-89
2022/05/01 00:48:44;;;;;;;5.97;3.85;;;;;;;21.83;52.56;99737.38;4973349;29;20055;-89
2022/05/01 00:51:10;;;;;;;4.50;3.67;;;;;;;21.81;52.63;99723.34;4973323;29;20046;-90
2022/05/01 00:53:37;;;;;;;5.43;4.10;;;;;;;21.81;52.45;99733.97;4973407;29;20027;-90
2022/05/01 00:56:02;;;;;;;4.80;4.22;;;;;;;21.81;52.49;99733.09;4973002;29;20110;-90
2022/05/01 00:58:29;;;;;;;5.05;4.00;;;;;;;21.82;52.48;99734.78;4989391;28;20477;-90
2022/05/01 01:00:56;;;;;;;5.30;4.07;;;;;;;21.78;52.66;99726.16;4972873;29;20039;-90
2022/05/01 01:03:21;;;;;;;4.97;3.80;;;;;;;21.78;52.40;99728.81;4973164;29;20043;-89
2022/05/01 01:05:48;;;;;;;5.25;3.97;;;;;;;21.78;52.57;99733.28;4970334;29;20187;-87
2022/05/01 01:08:14;;;;;;;4.97;3.60;;;;;;;21.78;52.40;99727.97;4986942;28;20034;-88
2022/05/01 01:10:39;;;;;;;4.57;3.80;;;;;;;21.76;52.51;99724.53;4956119;29;20031;-89
2022/05/01 01:13:05;;;;;;;4.90;4.07;;;;;;;21.76;52.57;99729.84;4987862;28;20066;-87
2022/05/01 01:15:31;;;;;;;4.55;3.63;;;;;;;21.73;52.66;99726.44;4970948;29;20480;-87
2022/05/01 01:17:58;;;;;;;4.57;3.90;;;;;;;21.72;52.48;99727.41;4968303;29;20071;-88
2022/05/01 01:20:26;;;;;;;6.15;4.10;;;;;;;21.70;52.34;99716.00;4985629;28;20066;-89
2022/05/01 01:22:54;;;;;;;4.50;3.80;;;;;;;21.70;52.42;99721.31;4969148;29;20038;-88
2022/05/01 01:25:26;;;;;;;4.88;3.80;;;;;;;21.70;52.37;99726.63;4969451;29;20035;-88
2022/05/01 01:27:56;;;;;;;5.15;4.13;;;;;;;21.68;52.58;99720.53;4970446;29;20035;-87
2022/05/01 01:33:07;;;;;;;5.20;4.40;;;;;;;21.69;52.53;99724.88;4970063;29;20111;-89
2022/05/01 01:35:36;;;;;;;4.60;3.65;;;;;;;21.71;52.38;99722.16;4970304;29;20091;-88
2022/05/01 01:38:02;;;;;;;4.78;3.78;;;;;;;21.69;52.53;99719.56;4970712;29;20031;-89
2022/05/01 01:40:46;;;;;;;5.13;4.15;;;;;;;21.67;52.34;99716.16;4970589;28;20066;-89
2022/05/01 01:43:13;;;;;;;4.50;3.72;;;;;;;21.67;52.65;99717.94;4970218;29;20059;-87
2022/05/01 01:45:38;;;;;;;5.13;4.00;;;;;;;21.65;52.49;99712.72;4970145;29;20047;-87
2022/05/01 01:48:18;;;;;;;4.25;3.85;;;;;;;21.65;52.46;99710.06;4970947;29;20095;-88
2022/05/01 01:50:55;;;;;;;4.82;3.85;;;;;;;21.63;52.64;99713.75;4985017;28;20031;-89
2022/05/01 01:53:20;;;;;;;5.47;3.75;;;;;;;21.63;52.26;99714.63;4969314;29;20035;-87
2022/05/01 01:55:46;;;;;;;5.25;4.20;;;;;;;21.61;52.55;99716.53;4969826;29;20031;-88
2022/05/01 01:58:11;;;;;;;4.85;4.18;;;;;;;21.59;52.52;99713.97;4969818;28;20102;-87
2022/05/01 02:00:37;;;;;;;4.80;3.80;;;;;;;21.60;52.45;99717.47;4973648;29;20031;-87
2022/05/01 02:03:04;;;;;;;5.05;3.58;;;;;;;21.60;52.54;99709.53;4974901;29;20042;-87
2022/05/01 02:05:31;;;;;;;5.45;4.55;;;;;;;21.58;52.54;99716.69;4991198;28;20042;-89
2022/05/01 02:07:57;;;;;;;4.65;3.78;;;;;;;21.55;52.42;99717.72;4973714;29;20030;-87
2022/05/01 02:10:23;;;;;;;5.05;3.58;;;;;;;21.56;52.32;99713.28;4974399;29;20043;-88
2022/05/01 02:12:49;;;;;;;5.25;4.25;;;;;;;21.55;52.59;99717.72;4989040;28;20049;-88
2022/05/01 02:15:16;;;;;;;4.90;4.10;;;;;;;21.57;52.31;99715.00;4973864;28;20465;-87
2022/05/01 02:17:42;;;;;;;5.43;3.95;;;;;;;21.54;52.55;99716.03;4974332;29;20035;-86
2022/05/01 02:20:08;;;;;;;4.70;3.90;;;;;;;21.55;52.35;99719.56;4974268;29;20103;-87
2022/05/01 02:22:35;;;;;;;5.10;4.00;;;;;;;21.56;52.47;99713.28;4974480;29;20027;-89
2022/05/01 02:25:02;;;;;;;4.53;3.75;;;;;;;21.52;52.49;99706.44;4975787;28;20099;-88
2022/05/01 02:27:28;;;;;;;5.20;4.00;;;;;;;21.55;52.34;99711.59;4974394;29;20035;-86
2022/05/01 02:29:54;;;;;;;4.85;4.13;;;;;;;21.53;52.51;99709.03;4974739;29;20027;-87
2022/05/01 02:32:20;;;;;;;5.18;3.80;;;;;;;21.53;52.27;99705.50;4958361;29;20358;-89
2022/05/01 02:34:45;;;;;;;4.85;3.92;;;;;;;21.52;52.34;99706.44;4972597;29;20039;-87
2022/05/01 02:37:11;;;;;;;4.68;3.85;;;;;;;21.54;52.41;99707.19;4972859;29;20024;-88
2022/05/01 02:39:37;;;;;;;5.15;3.78;;;;;;;21.51;52.11;99704.75;4973485;29;20035;-89
2022/05/01 02:42:03;;;;;;;4.85;4.25;;;;;;;21.50;52.32;99711.00;4973893;28;20035;-88
2022/05/01 02:44:29;;;;;;;4.68;4.07;;;;;;;21.49;52.32;99701.34;4989496;28;20059;-88
2022/05/01 02:46:56;;;;;;;4.68;3.60;;;;;;;21.49;52.20;99704.00;4988798;28;20031;-88
2022/05/01 02:49:21;;;;;;;5.05;4.15;;;;;;;21.46;52.27;99703.22;4970883;29;20031;-87
2022/05/01 02:51:48;;;;;;;5.38;4.60;;;;;;;21.45;52.54;99701.50;4972197;29;20453;-86
2022/05/01 02:54:14;;;;;;;5.43;4.38;;;;;;;21.45;52.46;99701.50;4971629;29;20045;-89
2022/05/01 02:56:39;;;;;;;5.72;4.22;;;;;;;21.46;52.27;99697.91;4971214;29;20121;-88
2022/05/01 02:59:09;;;;;;;4.95;4.10;;;;;;;21.44;52.47;99699.78;4972488;29;20031;-88
2022/05/01 03:01:36;;;;;;;5.07;4.15;;;;;;;21.44;52.28;99705.09;4988620;28;20066;-89
2022/05/01 03:04:02;;;;;;;4.72;3.92;;;;;;;21.44;52.21;99705.09;4973687;29;20031;-88
2022/05/01 03:06:27;;;;;;;5.15;4.05;;;;;;;21.42;52.34;99701.69;4989540;28;20035;-90
2022/05/01 03:08:53;;;;;;;4.72;3.92;;;;;;;21.39;52.44;99701.88;4973027;29;20078;-89
2022/05/01 03:11:19;;;;;;;5.25;4.00;;;;;;;21.39;52.20;99701.88;4973835;28;20042;-90
2022/05/01 03:13:45;;;;;;;5.55;4.18;;;;;;;21.37;52.16;99701.13;4973937;29;20023;-87
2022/05/01 03:16:10;;;;;;;4.97;4.13;;;;;;;21.36;52.44;99702.03;4974018;28;20031;-88
2022/05/01 03:24:05;;;;;;;5.40;4.45;;;;;;;21.36;52.25;99698.53;4975295;29;20059;-88
2022/05/01 03:26:30;;;;;;;5.10;4.30;;;;;;;21.36;52.21;99691.41;4990583;28;20100;-89
2022/05/01 03:28:56;;;;;;;5.95;4.70;;;;;;;21.33;52.38;99689.81;4974889;29;20074;-89
2022/05/01 03:31:22;;;;;;;5.43;4.40;;;;;;;21.34;52.48;99690.66;4975184;29;20032;-88
2022/05/01 03:33:47;;;;;;;5.38;4.28;;;;;;;21.33;52.20;99691.63;4974822;29;20156;-88
2022/05/01 03:36:14;;;;;;;4.38;3.90;;;;;;;21.33;52.23;99687.16;4972049;29;20130;-87
2022/05/01 03:38:42;;;;;;;4.97;4.38;;;;;;;21.31;52.28;99685.56;4973722;29;20099;-87
2022/05/01 03:41:09;;;;;;;5.50;4.40;;;;;;;21.31;52.16;99688.22;4988134;28;20035;-88
2022/05/01 03:43:36;;;;;;;4.90;3.92;;;;;;;21.31;52.22;99691.69;4971888;29;20413;-87
2022/05/01 03:46:04;;;;;;;5.80;4.43;;;;;;;21.30;52.44;99689.13;4988827;28;20357;-87
2022/05/01 03:48:29;;;;;;;4.78;3.88;;;;;;;21.27;52.53;99681.34;4988879;28;20023;-89
2022/05/01 03:50:55;;;;;;;4.70;3.72;;;;;;;21.30;52.26;99686.47;4972455;29;20046;-88
2022/05/01 03:53:22;;;;;;;6.40;4.03;;;;;;;21.27;52.23;99681.34;4972289;29;20039;-88
2022/05/01 03:55:48;;;;;;;5.18;4.15;;;;;;;21.26;52.11;99680.50;4972895;28;20059;-86
2022/05/01 03:58:14;;;;;;;5.43;4.28;;;;;;;21.26;52.08;99679.66;4972588;29;20034;-88
2022/05/01 04:00:44;;;;;;;5.15;4.38;;;;;;;21.24;52.12;99687.69;4972755;29;20028;-87
2022/05/01 04:03:10;;;;;;;6.22;4.38;;;;;;;21.26;52.33;99684.97;4972080;29;20027;-88
2022/05/01 04:05:35;;;;;;;5.07;4.32;;;;;;;21.23;52.28;99679.81;4972433;29;20472;-88
2022/05/01 04:08:01;;;;;;;4.82;4.00;;;;;;;21.22;52.40;99679.00;4989137;28;20023;-89
2022/05/01 04:10:26;;;;;;;5.20;4.60;;;;;;;21.21;52.52;99681.72;4972927;29;20103;-88
2022/05/01 04:12:52;;;;;;;5.28;4.30;;;;;;;21.19;52.25;99680.03;4989321;28;20055;-88
2022/05/01 04:15:17;;;;;;;5.18;4.57;;;;;;;21.19;52.23;99685.31;4971655;29;20030;-88
2022/05/01 04:17:44;;;;;;;5.53;4.53;;;;;;;21.18;52.20;99683.63;4971266;29;20020;-89
2022/05/01 04:20:15;;;;;;;5.28;4.20;;;;;;;21.17;52.38;99681.88;4972193;29;20014;-88
2022/05/01 04:22:46;;;;;;;5.43;4.65;;;;;;;21.17;52.29;99689.84;4987652;28;20031;-88
2022/05/01 04:25:18;;;;;;;5.07;4.57;;;;;;;21.16;52.39;99685.50;4971308;29;20027;-88
2022/05/01 04:27:45;;;;;;;5.30;4.50;;;;;;;21.16;52.34;99688.13;4971668;29;20033;-89
2022/05/01 04:30:13;;;;;;;5.68;4.20;;;;;;;21.17;52.51;99692.50;4971583;29;20049;-88
2022/05/01 04:32:56;;;;;;;5.65;4.43;;;;;;;21.15;52.33;99688.22;4988215;28;20043;-88
2022/05/01 04:35:31;;;;;;;5.15;4.38;;;;;;;21.15;52.22;99696.19;4972629;29;20027;-89
2022/05/01 04:38:04;;;;;;;5.63;4.68;;;;;;;21.14;52.27;99690.03;4972023;29;20023;-87
2022/05/01 04:40:34;;;;;;;5.63;4.57;;;;;;;21.13;52.19;99698.94;4988756;28;20464;-87
2022/05/01 04:43:01;;;;;;;5.53;4.30;;;;;;;21.13;52.14;99700.75;4971562;29;20027;-88
2022/05/01 04:45:29;;;;;;;5.30;4.43;;;;;;;21.11;52.31;99698.16;4972968;29;20112;-88
2022/05/01 04:47:55;;;;;;;4.80;3.90;;;;;;;21.11;52.33;99703.47;4956844;29;20027;-88
2022/05/01 04:50:20;;;;;;;5.28;4.60;;;;;;;21.11;52.39;99705.28;4971227;29;20023;-86
2022/05/01 04:52:46;;;;;;;5.13;4.32;;;;;;;21.10;52.25;99693.81;4972939;28;20038;-88
2022/05/01 04:55:12;;;;;;;5.72;4.40;;;;;;;21.11;52.20;99703.47;4971739;29;20064;-89
2022/05/01 04:57:39;;;;;;;5.63;4.55;;;;;;;21.10;52.17;99707.06;4971419;29;20015;-87
2022/05/01 05:00:08;;;;;;;5.85;5.03;;;;;;;21.08;52.17;99711.63;4987241;28;20047;-87
2022/05/01 05:02:42;;;;;;;6.10;4.97;;;;;;;21.08;52.33;99703.66;4971526;29;20095;-88
2022/05/01 05:05:09;;;;;;;5.07;4.07;;;;;;;21.08;52.07;99700.16;4987688;28;20031;-87
2022/05/01 05:07:36;;;;;;;5.57;4.53;;;;;;;21.08;52.44;99716.94;4971398;29;20042;-87
2022/05/01 05:10:04;;;;;;;5.15;4.60;;;;;;;21.06;52.29;99709.06;4986914;28;20031;-88
2022/05/01 05:12:30;;;;;;;6.20;4.70;;;;;;;21.05;52.37;99715.31;4973517;28;20041;-88
2022/05/01 05:14:59;;;;;;;5.88;4.50;;;;;;;21.05;52.08;99719.75;4987363;28;20059;-89
2022/05/01 05:17:25;;;;;;;6.45;4.28;;;;;;;21.06;52.08;99721.44;4956101;29;20122;-89
2022/05/01 05:19:51;;;;;;;5.65;4.80;;;;;;;21.05;52.22;99725.06;4972341;28;20031;-89
2022/05/01 05:22:16;;;;;;;5.63;4.60;;;;;;;21.04;52.14;99729.53;4972191;29;20031;-90
2022/05/01 05:24:42;;;;;;;6.13;5.22;;;;;;;21.05;52.24;99727.69;4972341;29;20027;-88
2022/05/01 05:27:08;;;;;;;5.07;4.32;;;;;;;21.04;52.12;99728.66;4971498;29;20131;-88
2022/05/01 05:29:34;;;;;;;5.45;4.50;;;;;;;21.04;52.19;99728.66;4972998;28;20041;-89
2022/05/01 05:32:00;;;;;;;5.80;4.88;;;;;;;21.03;52.42;99737.56;4971905;29;20095;-88
2022/05/01 05:34:26;;;;;;;6.28;4.97;;;;;;;21.04;51.94;99739.25;4975498;28;20334;-89
2022/05/01 05:36:52;;;;;;;7.28;4.78;;;;;;;21.01;52.25;99742.09;4976850;29;20047;-88
2022/05/01 05:39:18;;;;;;;5.43;4.30;;;;;;;21.00;52.09;99737.72;4976894;28;20015;-89
2022/05/01 05:41:44;;;;;;;5.40;4.68;;;;;;;21.01;52.22;99742.09;4975693;29;20035;-87
2022/05/01 05:44:10;;;;;;;5.85;4.95;;;;;;;21.02;52.25;99741.16;4974351;29;20059;-87
2022/05/01 05:46:36;;;;;;;5.57;4.82;;;;;;;21.00;52.16;99753.63;4976504;28;20082;-89
2022/05/01 05:49:03;;;;;;;6.30;4.82;;;;;;;21.01;52.16;99739.47;4991191;28;20034;-90
2022/05/01 05:51:28;;;;;;;5.82;4.85;;;;;;;20.98;52.14;99744.91;4975512;29;20027;-90
2022/05/01 05:53:54;;;;;;;5.70;4.78;;;;;;;20.99;52.23;99742.19;4976350;29;20027;-90
2022/05/01 05:56:21;;;;;;;6.10;5.05;;;;;;;20.99;52.16;99746.63;4992651;28;20031;-89
2022/05/01 05:58:47;;;;;;;6.30;5.03;;;;;;;21.00;52.05;99748.31;4976658;28;20027;-89
2022/05/01 06:01:13;;;;;;;6.20;4.97;;;;;;;20.97;52.27;99748.53;4974905;29;20030;-88
2022/05/01 06:03:39;;;;;;;6.22;4.30;;;;;;;21.00;52.29;99753.63;4976119;29;20255;-89
2022/05/01 06:06:05;;;;;;;5.50;4.63;;;;;;;20.98;52.03;99750.22;4974005;28;20043;-88
2022/05/01 06:08:31;;;;;;;5.72;4.90;;;;;;;20.99;52.19;99758.09;4974992;29;20517;-88
2022/05/01 06:10:57;;;;;;;5.20;4.40;;;;;;;20.99;52.52;99757.22;4975069;29;20031;-88
2022/05/01 06:13:22;;;;;;;6.05;5.18;;;;;;;20.97;52.44;99753.81;4975861;28;20555;-89
2022/05/01 06:15:48;;;;;;;5.80;5.03;;;;;;;20.97;52.14;99754.66;4958312;29;20123;-87
2022/05/01 06:18:14;;;;;;;5.70;4.88;;;;;;;20.98;52.27;99760.84;4974283;29;20066;-86
2022/05/01 06:20:41;;;;;;;5.53;4.85;;;;;;;20.97;52.03;99757.31;4974806;29;20007;-88
2022/05/01 06:23:06;;;;;;;6.07;5.20;;;;;;;20.99;51.96;99762.53;4975728;29;20034;-89
2022/05/01 06:25:35;;;;;;;6.18;5.18;;;;;;;20.98;52.17;99760.84;4974627;29;20027;-89
2022/05/01 06:28:00;;;;;;;6.10;5.03;;;;;;;21.00;52.01;99764.25;4974188;29;20024;-88
2022/05/01 06:30:26;;;;;;;6.20;5.18;;;;;;;21.00;51.88;99765.13;4974511;29;20079;-87
2022/05/01 06:32:52;;;;;;;7.03;5.25;;;;;;;21.02;51.91;99767.69;4974971;29;20424;-90
2022/05/01 06:35:18;;;;;;;6.25;4.95;;;;;;;21.00;52.08;99764.25;4973502;29;20030;-88
2022/05/01 06:37:44;;;;;;;6.93;5.22;;;;;;;21.01;52.20;99763.34;4974168;29;20023;-89
2022/05/01 06:40:10;;;;;;;6.78;6.07;;;;;;;21.03;52.14;99772.88;4972509;29;20032;-88
2022/05/01 06:42:36;;;;;;;7.65;5.65;;;;;;;21.04;52.03;99781.72;4974360;29;20038;-88
2022/05/01 06:45:03;;;;;;;6.25;5.32;;;;;;;21.04;52.39;99768.44;4971381;28;20047;-87
2022/05/01 06:47:28;;;;;;;6.35;5.50;;;;;;;21.03;51.79;99775.53;4973154;29;20209;-88
2022/05/01 06:49:54;;;;;;;6.85;5.75;;;;;;;21.05;51.84;99783.41;4972311;29;20039;-87
2022/05/01 06:52:23;;;;;;;7.10;6.00;;;;;;;21.04;51.93;99779.06;4974106;29;20020;-89
2022/05/01 06:54:50;;;;;;;7.18;5.72;;;;;;;21.03;52.08;99778.19;4972679;29;20087;-88
2022/05/01 06:57:15;;;;;;;6.47;5.38;;;;;;;21.04;51.82;99781.72;4973471;29;20050;-88
2022/05/01 06:59:41;;;;;;;6.53;5.60;;;;;;;21.04;51.72;99781.72;4989309;28;20038;-86
2022/05/01 07:02:07;;;;;;;7.65;6.47;;;;;;;21.04;51.75;99776.41;4974215;29;20023;-88
2022/05/01 07:04:33;;;;;;;6.45;5.72;;;;;;;21.04;52.13;99784.38;4973909;29;20027;-88
2022/05/01 07:06:59;;;;;;;6.68;5.97;;;;;;;21.06;51.98;99782.47;4973467;29;20038;-89
2022/05/01 07:09:24;;;;;;;6.97;5.57;;;;;;;21.05;51.74;99786.94;4973503;29;20023;-88
2022/05/01 07:11:50;;;;;;;7.05;5.82;;;;;;;21.05;51.84;99786.94;4971915;29;20091;-90
2022/05/01 07:14:15;;;;;;;6.95;5.85;;;;;;;21.05;51.76;99788.72;4971382;29;20086;-88
2022/05/01 07:16:41;;;;;;;7.28;6.00;;;;;;;21.06;51.88;99790.44;4973332;28;20062;-87
2022/05/01 07:19:06;;;;;;;6.43;5.65;;;;;;;21.08;51.80;99796.53;4972498;29;20118;-88
2022/05/01 07:21:32;;;;;;;7.13;5.97;;;;;;;21.05;51.60;99789.59;4971273;29;20060;-88
2022/05/01 07:23:58;;;;;;;6.45;5.65;;;;;;;21.05;51.85;99791.38;4972130;29;20109;-87
2022/05/01 07:26:25;;;;;;;7.50;5.85;;;;;;;21.06;51.60;99791.31;4973233;29;20027;-88
2022/05/01 07:28:51;;;;;;;7.90;5.53;;;;;;;21.05;51.74;99788.72;4972619;29;20038;-88
2022/05/01 07:31:17;;;;;;;6.72;5.90;;;;;;;21.05;51.64;99800.22;4973214;29;20015;-88
2022/05/01 07:33:42;;;;;;;6.93;5.22;;;;;;;21.05;51.70;99794.91;4973095;29;20028;-88
2022/05/01 07:36:08;;;;;;;8.55;6.50;;;;;;;21.04;51.92;99797.63;4973894;28;20031;-88
2022/05/01 07:38:34;;;;;;;6.72;6.03;;;;;;;21.04;51.79;99797.63;4973672;29;20031;-87
2022/05/01 07:41:00;;;;;;;7.22;6.53;;;;;;;21.04;51.69;99797.63;4973875;29;20031;-87
2022/05/01 07:43:26;;;;;;;7.75;6.70;;;;;;;21.04;51.61;99795.84;4974043;28;20146;-87
2022/05/01 07:45:51;;;;;;;7.10;6.03;;;;;;;21.06;51.85;99806.34;4973155;29;20103;-89
2022/05/01 07:48:17;;;;;;;7.78;6.75;;;;;;;21.04;51.62;99802.94;4974290;29;20063;-88
2022/05/01 07:50:43;;;;;;;8.27;7.03;;;;;;;21.05;51.61;99804.66;4973385;29;20058;-88
2022/05/01 07:53:09;;;;;;;8.05;6.68;;;;;;;21.06;51.60;99803.69;4973469;29;20449;-88
2022/05/01 07:55:34;;;;;;;7.55;6.35;;;;;;;21.07;51.64;99808.09;4972961;29;20035;-89
2022/05/01 07:58:00;;;;;;;8.23;7.10;;;;;;;21.09;51.62;99803.53;4973423;28;20113;-88
2022/05/01 08:00:25;;;;;;;7.90;6.65;;;;;;;21.06;51.60;99796.59;4973818;29;20100;-88
2022/05/01 08:05:35;;;;;;;8.65;7.00;;;;;;;21.07;51.52;99797.47;4975961;29;20095;-89
2022/05/01 08:08:01;;;;;;;8.50;6.90;;;;;;;21.09;51.50;99795.56;4974182;29;20031;-89
2022/05/01 08:10:26;;;;;;;10.70;8.18;;;;;;;21.09;51.67;99790.28;4974030;29;20082;-89
2022/05/01 08:12:52;;;;;;;8.93;7.68;;;;;;;21.09;51.33;99795.56;4973832;29;20351;-90
2022/05/01 08:15:18;;;;;;;8.98;7.03;;;;;;;21.11;51.46;99787.53;4973625;29;20046;-89
2022/05/01 08:17:45;;;;;;;9.52;7.18;;;;;;;21.11;51.35;99792.84;4975292;28;20035;-90
2022/05/01 08:23:05;;;;;;;8.63;7.13;;;;;;;21.10;51.37;99785.84;4975360;29;20062;-89
2022/05/01 08:25:31;;;;;;;8.48;6.95;;;;;;;21.10;51.07;99786.66;4974954;29;20070;-89
2022/05/01 08:27:56;;;;;;;9.32;7.22;;;;;;;21.11;51.11;99777.75;4990519;28;20042;-88
2022/05/01 08:30:22;;;;;;;9.05;7.35;;;;;;;21.15;51.27;99779.31;4973407;29;20030;-87
2022/05/01 08:32:48;;;;;;;8.85;7.43;;;;;;;21.13;51.22;99781.22;4973379;29;20023;-87
2022/05/01 08:35:13;;;;;;;9.50;7.60;;;;;;;21.15;51.56;99786.41;4973293;29;20051;-88
2022/05/01 08:37:40;;;;;;;9.30;7.43;;;;;;;21.16;51.31;99786.31;4974274;29;20033;-89
2022/05/01 08:40:07;;;;;;;9.57;7.47;;;;;;;21.15;51.24;99784.63;4986681;28;20046;-88
2022/05/01 08:42:35;;;;;;;8.15;7.03;;;;;;;21.16;51.31;99788.97;4974279;28;20042;-88
2022/05/01 08:45:05;;;;;;;8.68;7.40;;;;;;;21.16;51.48;99780.19;4972377;29;20051;-89
2022/05/01 08:47:46;;;;;;;8.93;7.20;;;;;;;21.14;51.12;99790.88;4972384;29;20039;-88
2022/05/01 08:50:12;;;;;;;8.32;6.72;;;;;;;21.12;51.44;99779.47;4973153;29;20027;-89
2022/05/01 08:52:40;;;;;;;8.43;7.53;;;;;;;21.14;51.36;99787.34;4973004;28;20035;-89
2022/05/01 08:55:06;;;;;;;8.45;7.05;;;;;;;21.12;51.27;99790.09;4957523;29;20035;-88
2022/05/01 08:57:33;;;;;;;8.70;7.28;;;;;;;21.11;51.27;99785.72;4971643;29;20034;-90
2022/05/01 09:00:00;;;;;;;9.60;7.25;;;;;;;21.12;51.36;99784.78;4971829;29;20087;-87
2022/05/01 10:43:33;;;;;;;8.20;6.97;;;;;;;21.63;50.88;99717.28;4896493;28;2435737;-89
2022/05/01 10:46:02;;;;;;;8.55;7.05;;;;;;;21.65;51.10;99722.50;4979870;29;20058;-90
2022/05/01 10:48:44;;;;;;;7.78;6.20;;;;;;;21.64;50.84;99721.66;4964265;28;20018;-89
2022/05/01 10:51:36;;;;;;;8.18;6.95;;;;;;;21.68;50.81;99717.88;4989899;28;20039;-87
2022/05/01 10:54:19;;;;;;;9.63;7.35;;;;;;;21.70;50.73;99710.69;4980211;28;20016;-88
2022/05/01 10:57:31;;;;;;;9.15;7.93;;;;;;;21.70;50.92;99710.69;4979352;29;20028;-88
2022/05/01 11:00:19;;;;;;;8.75;7.00;;;;;;;21.72;50.77;99708.81;4978534;29;20023;-88
2022/05/01 11:03:21;;;;;;;8.60;7.30;;;;;;;21.74;50.93;99706.03;4979235;28;20043;-87
2022/05/01 11:06:43;;;;;;;8.32;7.07;;;;;;;21.76;50.69;99693.53;4979527;29;20023;-89
2022/05/01 11:09:13;;;;;;;8.73;6.72;;;;;;;21.78;50.88;99696.09;4979167;29;20023;-90
2022/05/01 11:11:40;;;;;;;8.40;6.93;;;;;;;21.79;50.92;99692.50;4963933;29;20122;-89
2022/05/01 11:14:06;;;;;;;8.63;7.40;;;;;;;21.79;50.84;99688.03;4980037;28;20027;-89
2022/05/01 11:20:41;;;;;;;7.65;6.63;;;;;;;21.83;50.72;99670.97;4979620;29;20046;-88
2022/05/01 11:23:30;;;;;;;9.00;7.45;;;;;;;21.86;50.82;99680.53;4978289;29;20039;-88
2022/05/01 11:26:25;;;;;;;8.52;6.82;;;;;;;21.87;50.83;99668.97;4962870;28;20025;-90
2022/05/01 11:29:13;;;;;;;8.55;6.88;;;;;;;21.88;50.47;99665.34;4970619;29;20086;-90
2022/05/01 11:35:11;;;;;;;8.20;6.78;;;;;;;21.92;50.82;99666.88;4979853;29;20050;-88
2022/05/01 11:41:02;;;;;;;7.82;6.65;;;;;;;21.94;50.82;99662.31;4979117;29;20050;-88
2022/05/01 11:43:29;;;;;;;8.35;6.53;;;;;;;21.94;50.67;99649.03;4963377;29;20086;-89
2022/05/01 11:46:44;;;;;;;7.40;6.05;;;;;;;21.97;50.70;99648.00;4994659;28;20023;-89
2022/05/01 11:49:10;;;;;;;7.88;6.47;;;;;;;21.99;50.98;99643.47;4979881;28;20026;-91
2022/05/01 11:51:58;;;;;;;7.90;6.68;;;;;;;22.00;50.85;99640.69;4978854;29;20023;-87
2022/05/01 12:04:36;;;;;;;7.95;6.28;;;;;;;22.09;50.62;99619.81;4979990;28;20030;-89
2022/05/01 12:07:07;;;;;;;7.35;6.43;;;;;;;22.12;50.65;99624.91;4979093;29;20027;-88
2022/05/01 12:09:38;;;;;;;7.70;6.32;;;;;;;22.12;50.71;99615.16;4979868;28;20050;-88
2022/05/01 12:12:12;;;;;;;8.18;6.75;;;;;;;22.15;50.69;99619.41;4963770;28;20035;-88
2022/05/01 12:15:24;;;;;;;8.63;7.03;;;;;;;22.16;50.52;99617.59;4979713;28;20027;-87
2022/05/01 12:18:38;;;;;;;8.20;6.55;;;;;;;22.18;50.63;99605.91;4979220;28;20091;-89
2022/05/01 12:21:27;;;;;;;7.80;6.05;;;;;;;22.19;50.36;99610.31;4979161;29;20039;-87
2022/05/01 12:24:00;;;;;;;8.43;6.45;;;;;;;22.21;50.92;99603.09;4979106;29;20018;-87
2022/05/01 12:26:52;;;;;;;7.82;6.32;;;;;;;22.23;50.39;99601.16;4979993;29;20011;-88
2022/05/01 12:29:41;;;;;;;7.72;6.13;;;;;;;22.25;50.32;99601.06;4964575;29;20015;-88
2022/05/01 12:32:31;;;;;;;7.40;6.15;;;;;;;22.27;50.31;99599.16;4963621;29;20023;-87
2022/05/01 12:35:22;;;;;;;9.45;6.90;;;;;;;22.27;50.60;99594.72;4979253;28;20015;-89
2022/05/01 12:48:21;;;;;;;7.72;6.15;;;;;;;22.35;50.63;99588.03;4960408;29;20075;-88
2022/05/01 12:51:35;;;;;;;7.47;5.68;;;;;;;22.36;50.57;99576.44;4975554;28;20020;-90
2022/05/01 12:54:35;;;;;;;7.60;5.88;;;;;;;22.37;50.55;99581.66;4959999;29;20036;-89
2022/05/01 12:57:34;;;;;;;7.50;6.18;;;;;;;22.39;50.61;99577.09;4959950;28;20047;-89
2022/05/01 13:00:40;;;;;;;8.27;6.40;;;;;;;22.41;50.48;99579.66;4960546;28;20067;-91
2022/05/01 13:03:42;;;;;;;6.45;5.47;;;;;;;22.42;50.73;99578.69;4975887;28;20043;-89
2022/05/01 13:12:43;;;;;;;8.43;6.00;;;;;;;22.47;50.72;99571.28;4971099;29;20026;-89
2022/05/01 13:15:41;;;;;;;8.07;6.15;;;;;;;22.48;50.61;99562.34;4958710;29;20059;-90
2022/05/01 13:18:49;;;;;;;7.20;5.90;;;;;;;22.49;50.62;99564.06;4959363;28;20073;-90
2022/05/01 13:21:22;;;;;;;7.53;5.03;;;;;;;22.51;50.50;99556.84;4959672;29;20019;-90
2022/05/01 13:24:41;;;;;;;7.32;5.80;;;;;;;22.52;50.63;99563.88;4944052;29;20058;-87
2022/05/01 13:27:34;;;;;;;7.72;5.60;;;;;;;22.54;50.70;99566.47;4959647;28;20047;-87
2022/05/01 13:30:16;;;;;;;7.47;5.88;;;;;;;22.56;50.83;99563.69;4959317;29;20032;-89
2022/05/01 13:32:57;;;;;;;7.18;6.10;;;;;;;22.58;50.71;99556.47;4943420;29;20023;-88
2022/05/01 13:38:49;;;;;;;7.78;6.00;;;;;;;22.62;50.58;99563.28;4960360;29;20087;-88
2022/05/01 13:46:59;;;;;;;7.13;5.63;;;;;;;22.66;50.50;99551.47;4964794;29;20122;-89
2022/05/01 13:49:31;;;;;;;7.13;5.38;;;;;;;22.67;50.68;99548.72;4978513;28;20042;-88
2022/05/01 13:51:57;;;;;;;6.50;5.30;;;;;;;22.69;50.64;99540.66;4947061;29;20488;-89
2022/05/01 13:54:23;;;;;;;6.32;5.22;;;;;;;22.71;50.67;99541.38;4947551;29;20070;-89
2022/05/01 13:57:00;;;;;;;6.68;5.10;;;;;;;22.72;50.74;99543.13;4967200;29;20075;-87
2022/05/01 13:59:30;;;;;;;5.90;4.85;;;;;;;22.73;50.78;99534.16;4981967;28;20039;-87
2022/05/01 14:01:58;;;;;;;6.10;4.93;;;;;;;22.75;50.53;99532.25;4965246;29;20019;-87
2022/05/01 14:04:39;;;;;;;7.75;6.13;;;;;;;22.76;50.58;99525.13;4965838;28;20022;-87
2022/05/01 14:07:27;;;;;;;6.88;5.22;;;;;;;22.76;50.55;99512.66;4967056;29;20031;-87
2022/05/01 14:09:54;;;;;;;6.53;5.13;;;;;;;22.78;50.62;99516.09;4981756;28;20042;-88
2022/05/01 14:12:27;;;;;;;6.80;5.07;;;;;;;22.80;50.44;99511.50;4981779;29;20043;-88
2022/05/01 14:15:11;;;;;;;6.50;4.85;;;;;;;22.83;50.52;99514.91;4982342;28;20493;-88
2022/05/01 14:17:38;;;;;;;6.68;5.07;;;;;;;22.83;50.65;99509.59;4981208;29;20105;-88
2022/05/01 14:20:07;;;;;;;5.93;5.07;;;;;;;22.84;50.59;99506.84;4980269;28;20433;-87
2022/05/01 14:22:35;;;;;;;6.65;5.07;;;;;;;22.86;50.71;99507.56;4966010;29;20022;-88
2022/05/01 14:25:04;;;;;;;6.30;5.47;;;;;;;22.87;50.83;99508.44;4998037;28;20026;-88
2022/05/01 14:27:48;;;;;;;6.53;4.78;;;;;;;22.88;50.59;99494.16;4964838;29;20037;-87
2022/05/01 14:30:15;;;;;;;6.75;5.22;;;;;;;22.89;50.51;99499.38;4967199;29;20041;-87
2022/05/01 14:32:50;;;;;;;6.85;5.10;;;;;;;22.91;50.53;99493.97;4980775;29;20031;-87
2022/05/01 14:35:21;;;;;;;6.40;5.25;;;;;;;22.94;50.41;99493.75;4948717;29;20031;-87
2022/05/01 14:37:56;;;;;;;6.82;4.97;;;;;;;22.94;50.53;99480.44;4980066;28;20046;-87